Time,TemperatureF,DewpointF,PressureIn,WindDirection,WindDirectionDegrees,WindSpeedMPH,WindSpeedGustMPH,Humidity,HourlyPrecipIn,Conditions,Clouds,dailyrainin,SoftwareType,DateUTC
2013-07-13 01:30:00,67.0,61.0,-100.00,South,170,9.0,11.0,79,-99.99,,,-99.99,,2013-07-13 05:30:00,
2013-07-13 01:32:00,67.0,61.0,-100.00,SE,130,9.0,13.0,80,-99.99,,,-99.99,,2013-07-13 05:32:00,
2013-07-13 01:42:00,67.0,61.0,-100.00,South,170,11.0,16.0,78,-99.99,,,-99.99,,2013-07-13 05:42:00,
2013-07-13 01:52:00,67.0,61.0,-100.00,South,170,9.0,11.0,79,-99.99,,,-99.99,,2013-07-13 05:52:00,
2013-07-13 02:01:00,67.0,61.0,-100.00,South,170,9.0,11.0,79,-99.99,,,-99.99,,2013-07-13 06:01:00,
2013-07-13 02:11:00,67.0,61.0,-100.00,South,170,9.0,11.0,79,-99.99,,,-99.99,,2013-07-13 06:11:00,
2013-07-13 02:22:00,67.0,61.0,-100.00,South,170,9.0,11.0,79,-99.99,,,-99.99,,2013-07-13 06:22:00,
2013-07-13 02:52:00,67.0,60.0,-100.00,East,90,7.0,9.0,78,-99.99,,,-99.99,,2013-07-13 06:52:00,
2013-07-13 03:02:00,67.0,60.0,-100.00,East,90,7.0,9.0,78,-99.99,,,-99.99,,2013-07-13 07:02:00,
2013-07-13 03:11:00,67.0,60.0,-100.00,East,90,7.0,9.0,78,-99.99,,,-99.99,,2013-07-13 07:11:00,
2013-07-13 03:33:00,67.0,59.0,-100.00,SE,140,7.0,11.0,74,-99.99,,,-99.99,,2013-07-13 07:33:00,
2013-07-13 03:43:00,67.0,59.0,-100.00,South,170,9.0,13.0,75,-99.99,,,-99.99,,2013-07-13 07:43:00,
2013-07-13 03:53:00,67.0,59.0,-100.00,South,170,9.0,13.0,75,-99.99,,,-99.99,,2013-07-13 07:53:00,
2013-07-13 04:01:00,66.0,59.0,-100.00,South,180,11.0,13.0,78,-99.99,,,-99.99,,2013-07-13 08:01:00,
2013-07-13 04:11:00,66.0,59.0,-100.00,South,180,13.0,16.0,78,-99.99,,,-99.99,,2013-07-13 08:11:00,
2013-07-13 04:22:00,66.0,59.0,-100.00,South,180,13.0,16.0,78,-99.99,,,-99.99,,2013-07-13 08:22:00,
2013-07-13 04:33:00,66.0,59.0,-100.00,South,180,13.0,16.0,78,-99.99,,,-99.99,,2013-07-13 08:33:00,
2013-07-13 04:43:00,66.0,59.0,-100.00,South,180,13.0,18.0,77,-99.99,,,-99.99,,2013-07-13 08:43:00,
2013-07-13 04:52:00,66.0,59.0,-100.00,South,180,13.0,18.0,77,-99.99,,,-99.99,,2013-07-13 08:52:00,
2013-07-13 05:02:00,66.0,59.0,-100.00,South,180,13.0,18.0,77,-99.99,,,-99.99,,2013-07-13 09:02:00,
2013-07-13 05:11:00,67.0,60.0,-100.00,South,180,13.0,18.0,78,-99.99,,,-99.99,,2013-07-13 09:11:00,
2013-07-13 05:22:00,67.0,60.0,-100.00,South,180,13.0,18.0,78,-99.99,,,-99.99,,2013-07-13 09:22:00,
2013-07-13 05:32:00,66.0,60.0,-100.00,South,180,13.0,16.0,78,-99.99,,,-99.99,,2013-07-13 09:32:00,
2013-07-13 05:42:00,67.0,59.0,-100.00,South,180,13.0,18.0,77,-99.99,,,-99.99,,2013-07-13 09:42:00,
2013-07-13 05:53:00,66.0,59.0,-100.00,South,180,13.0,18.0,78,-99.99,,,-99.99,,2013-07-13 09:53:00,
2013-07-13 06:01:00,66.0,59.0,-100.00,South,180,13.0,18.0,78,-99.99,,,-99.99,,2013-07-13 10:01:00,
2013-07-13 06:11:00,66.0,59.0,-100.00,South,180,13.0,18.0,78,-99.99,,,-99.99,,2013-07-13 10:11:00,
2013-07-13 06:32:00,65.0,60.0,-100.00,South,170,13.0,18.0,81,-99.99,,,-99.99,,2013-07-13 10:32:00,
2013-07-13 06:42:00,65.0,60.0,-100.00,South,170,13.0,18.0,81,-99.99,,,-99.99,,2013-07-13 10:42:00,
2013-07-13 06:52:00,66.0,60.0,-100.00,SSE,160,11.0,16.0,82,-99.99,,,-99.99,,2013-07-13 10:52:00,
2013-07-13 07:01:00,65.0,61.0,-100.00,SSE,160,11.0,13.0,84,-99.99,,,-99.99,,2013-07-13 11:01:00,
2013-07-13 07:11:00,65.0,61.0,-100.00,SSE,160,11.0,13.0,84,-99.99,,,-99.99,,2013-07-13 11:11:00,
2013-07-13 07:21:00,65.0,61.0,-100.00,SSE,160,11.0,13.0,84,-99.99,,,-99.99,,2013-07-13 11:21:00,
2013-07-13 07:52:00,66.0,62.0,-100.00,South,170,13.0,16.0,86,-99.99,,,-99.99,,2013-07-13 11:52:00,
2013-07-13 08:02:00,66.0,62.0,-100.00,South,170,13.0,16.0,86,-99.99,,,-99.99,,2013-07-13 12:02:00,
2013-07-13 08:32:00,67.0,62.0,-100.00,SSE,160,11.0,13.0,84,-99.99,,,-99.99,,2013-07-13 12:32:00,
2013-07-13 08:43:00,67.0,62.0,-100.00,SSE,160,9.0,11.0,83,-99.99,,,-99.99,,2013-07-13 12:43:00,
2013-07-13 08:52:00,67.0,62.0,-100.00,SSE,160,9.0,11.0,83,-99.99,,,-99.99,,2013-07-13 12:52:00,
2013-07-13 09:01:00,67.0,62.0,-100.00,SSE,160,9.0,11.0,83,-99.99,,,-99.99,,2013-07-13 13:01:00,
2013-07-13 09:11:00,67.0,62.0,-100.00,South,170,9.0,11.0,83,-99.99,,,-99.99,,2013-07-13 13:11:00,
2013-07-13 09:20:00,70.0,62.0,-100.00,South,170,9.0,11.0,77,-99.99,,,-99.99,,2013-07-13 13:20:00,
2013-07-13 09:22:00,68.0,63.0,-100.00,SSE,160,9.0,11.0,83,-99.99,,,-99.99,,2013-07-13 13:22:00,
2013-07-13 09:32:00,68.0,63.0,-100.00,SSE,160,9.0,11.0,83,-99.99,,,-99.99,,2013-07-13 13:32:00,
2013-07-13 09:40:00,70.0,62.0,-100.00,South,170,11.0,13.0,76,-99.99,,,-99.99,,2013-07-13 13:40:00,
2013-07-13 09:43:00,69.0,62.0,-100.00,South,170,9.0,11.0,78,-99.99,,,-99.99,,2013-07-13 13:43:00,
2013-07-13 10:02:00,70.0,62.0,-100.00,South,170,9.0,11.0,77,-99.99,,,-99.99,,2013-07-13 14:02:00,
2013-07-13 10:11:00,70.0,62.0,-100.00,South,170,9.0,11.0,77,-99.99,,,-99.99,,2013-07-13 14:11:00,
2013-07-13 10:32:00,70.0,62.0,-100.00,South,170,11.0,13.0,76,-99.99,,,-99.99,,2013-07-13 14:32:00,
2013-07-13 10:40:00,72.0,62.0,-100.00,South,180,9.0,11.0,70,-99.99,,,-99.99,,2013-07-13 14:40:00,
2013-07-13 10:53:00,71.0,62.0,-100.00,South,170,9.0,11.0,74,-99.99,,,-99.99,,2013-07-13 14:53:00,
2013-07-13 11:02:00,72.0,62.0,-100.00,South,180,9.0,11.0,70,-99.99,,,-99.99,,2013-07-13 15:02:00,
2013-07-13 11:12:00,72.0,62.0,-100.00,South,180,9.0,11.0,70,-99.99,,,-99.99,,2013-07-13 15:12:00,
2013-07-13 11:22:00,72.0,62.0,-100.00,South,180,9.0,11.0,70,-99.99,,,-99.99,,2013-07-13 15:22:00,
2013-07-13 11:33:00,72.0,62.0,-100.00,South,180,9.0,11.0,70,-99.99,,,-99.99,,2013-07-13 15:33:00,
2013-07-13 11:50:00,73.0,61.0,-100.00,WSW,250,4.0,7.0,64,-99.99,,,-99.99,,2013-07-13 15:50:00,
2013-07-13 11:53:00,72.0,62.0,-100.00,SSW,200,4.0,7.0,70,-99.99,,,-99.99,,2013-07-13 15:53:00,
2013-07-13 12:01:00,72.0,62.0,-100.00,SSW,200,4.0,7.0,70,-99.99,,,-99.99,,2013-07-13 16:01:00,
2013-07-13 12:11:00,73.0,62.0,-100.00,SSW,210,7.0,9.0,66,-99.99,,,-99.99,,2013-07-13 16:11:00,
2013-07-13 12:22:00,73.0,62.0,-100.00,SSW,210,7.0,9.0,66,-99.99,,,-99.99,,2013-07-13 16:22:00,
2013-07-13 12:32:00,73.0,62.0,-100.00,SSW,210,7.0,9.0,66,-99.99,,,-99.99,,2013-07-13 16:32:00,
2013-07-13 12:43:00,73.0,61.0,-100.00,WSW,250,4.0,7.0,64,-99.99,,,-99.99,,2013-07-13 16:43:00,
2013-07-13 13:01:00,71.0,65.0,-100.00,NNW,340,4.0,7.0,79,-99.99,,,-99.99,,2013-07-13 17:01:00,
2013-07-13 13:11:00,71.0,65.0,-100.00,NW,310,7.0,7.0,79,-99.99,,,-99.99,,2013-07-13 17:11:00,
2013-07-13 13:22:00,71.0,64.0,-100.00,NW,310,7.0,9.0,77,-99.99,,,-99.99,,2013-07-13 17:22:00,
2013-07-13 13:33:00,71.0,64.0,-100.00,NW,310,7.0,9.0,77,-99.99,,,-99.99,,2013-07-13 17:33:00,
2013-07-13 13:42:00,71.0,64.0,-100.00,NW,310,7.0,9.0,77,-99.99,,,-99.99,,2013-07-13 17:42:00,
2013-07-13 13:52:00,71.0,65.0,-100.00,WNW,300,7.0,11.0,82,-99.99,,,-99.99,,2013-07-13 17:52:00,
2013-07-13 14:01:00,71.0,64.0,-100.00,NW,320,7.0,9.0,79,-99.99,,,-99.99,,2013-07-13 18:01:00,
2013-07-13 14:11:00,71.0,64.0,-100.00,NW,320,7.0,9.0,79,-99.99,,,-99.99,,2013-07-13 18:11:00,
2013-07-13 14:21:00,71.0,64.0,-100.00,NW,320,7.0,9.0,79,-99.99,,,-99.99,,2013-07-13 18:21:00,
2013-07-13 14:32:00,71.0,64.0,-100.00,West,280,7.0,9.0,78,-99.99,,,-99.99,,2013-07-13 18:32:00,
2013-07-13 14:43:00,71.0,64.0,-100.00,West,280,7.0,9.0,78,-99.99,,,-99.99,,2013-07-13 18:43:00,
2013-07-13 14:52:00,71.0,64.0,-100.00,West,280,7.0,9.0,78,-99.99,,,-99.99,,2013-07-13 18:52:00,
2013-07-13 15:01:00,71.0,64.0,-100.00,West,280,7.0,9.0,79,-99.99,,,-99.99,,2013-07-13 19:01:00,
2013-07-13 15:11:00,71.0,64.0,-100.00,West,280,7.0,9.0,79,-99.99,,,-99.99,,2013-07-13 19:11:00,
2013-07-13 15:32:00,71.0,64.0,-100.00,West,280,7.0,9.0,79,-99.99,,,-99.99,,2013-07-13 19:32:00,
2013-07-13 16:30:00,70.0,65.0,-100.00,North,350,4.0,7.0,85,-99.99,,,-99.99,,2013-07-13 20:30:00,
2013-07-13 18:11:00,71.0,66.0,-100.00,North,360,2.0,4.0,82,-99.99,,,-99.99,,2013-07-13 22:11:00,
2013-07-13 18:21:00,72.0,66.0,-100.00,NNW,330,2.0,2.0,81,-99.99,,,-99.99,,2013-07-13 22:21:00,
2013-07-13 18:32:00,72.0,66.0,-100.00,NNW,330,2.0,2.0,81,-99.99,,,-99.99,,2013-07-13 22:32:00,
2013-07-13 18:43:00,72.0,66.0,-100.00,NNW,330,2.0,2.0,81,-99.99,,,-99.99,,2013-07-13 22:43:00,
2013-07-13 18:53:00,71.0,66.0,-100.00,NNW,330,2.0,4.0,82,-99.99,,,-99.99,,2013-07-13 22:53:00,
2013-07-13 19:00:00,72.0,64.0,-100.00,NNW,340,4.0,4.0,75,-99.99,,,-99.99,,2013-07-13 23:00:00,
2013-07-13 19:01:00,71.0,66.0,-100.00,NNW,330,2.0,4.0,82,-99.99,,,-99.99,,2013-07-13 23:01:00,
2013-07-13 19:11:00,72.0,66.0,-100.00,NNW,330,2.0,4.0,81,-99.99,,,-99.99,,2013-07-13 23:11:00,
2013-07-13 19:22:00,72.0,64.0,-100.00,NNW,340,4.0,4.0,75,-99.99,,,-99.99,,2013-07-13 23:22:00,
2013-07-13 19:32:00,72.0,64.0,-100.00,NNW,340,4.0,4.0,75,-99.99,,,-99.99,,2013-07-13 23:32:00,
2013-07-13 19:42:00,72.0,64.0,-100.00,NNW,340,4.0,4.0,75,-99.99,,,-99.99,,2013-07-13 23:42:00,
2013-07-13 19:52:00,72.0,64.0,-100.00,NNW,340,4.0,4.0,75,-99.99,,,-99.99,,2013-07-13 23:52:00,
2013-07-13 20:32:00,72.0,64.0,-100.00,North,350,4.0,4.0,74,-99.99,,,-99.99,,2013-07-14 00:32:00,
2013-07-13 20:42:00,72.0,64.0,-100.00,North,350,4.0,4.0,74,-99.99,,,-99.99,,2013-07-14 00:42:00,
2013-07-13 20:52:00,73.0,63.0,-100.00,North,350,4.0,4.0,71,-99.99,,,-99.99,,2013-07-14 00:52:00,
2013-07-13 21:01:00,72.0,65.0,-100.00,North,360,2.0,4.0,77,-99.99,,,-99.99,,2013-07-14 01:01:00,
2013-07-13 21:11:00,72.0,64.0,-100.00,North,10,2.0,4.0,75,-99.99,,,-99.99,,2013-07-14 01:11:00,
2013-07-13 21:21:00,72.0,65.0,-100.00,North,360,2.0,2.0,77,-99.99,,,-99.99,,2013-07-14 01:21:00,
2013-07-13 21:32:00,72.0,65.0,-100.00,North,360,2.0,2.0,77,-99.99,,,-99.99,,2013-07-14 01:32:00,
2013-07-13 21:43:00,72.0,65.0,-100.00,North,0,0.0,2.0,79,-99.99,,,-99.99,,2013-07-14 01:43:00,
2013-07-13 21:52:00,70.0,66.0,-100.00,SSE,160,2.0,2.0,86,-99.99,,,-99.99,,2013-07-14 01:52:00,
2013-07-13 22:01:00,70.0,66.0,-100.00,SSE,160,2.0,2.0,86,-99.99,,,-99.99,,2013-07-14 02:01:00,
2013-07-13 22:11:00,70.0,66.0,-100.00,SSE,160,2.0,2.0,86,-99.99,,,-99.99,,2013-07-14 02:11:00,
2013-07-13 22:22:00,70.0,66.0,-100.00,SSE,160,2.0,2.0,86,-99.99,,,-99.99,,2013-07-14 02:22:00,